Time;durP1;ratioP1;P1;durP2;ratioP2;P2;SDS_P1;SDS_P2;PMS_P1;PMS_P2;Temp;Humidity;BMP_temperature;BMP_pressure;BME280_temperature;BME280_humidity;BME280_pressure;Samples;Min_cycle;Max_cycle;Signal;HPM_P1;HPM_P2
2021/07/29 01:37:40;;;;;;;10.88;4.15;;;15.30;99.90;;;16.30;100.00;99981.78;6160476;23;20027;-87
2021/07/29 01:40:09;;;;;;;6.25;3.40;;;15.30;99.90;;;16.41;100.00;99972.47;6114374;23;20500;-88
2021/07/29 01:42:51;;;;;;;5.15;3.72;;;15.30;99.90;;;16.33;100.00;99983.78;6133431;23;20014;-86
2021/07/29 01:45:17;;;;;;;8.10;3.92;;;15.30;99.90;;;16.18;100.00;99975.84;6134430;23;20010;-86
2021/07/29 01:47:44;;;;;;;6.82;3.75;;;15.20;99.90;;;16.19;100.00;99981.03;6132905;23;20006;-85
2021/07/29 01:50:10;;;;;;;5.93;3.67;;;15.30;99.90;;;16.07;100.00;99966.63;6133610;23;20498;-87
2021/07/29 01:52:38;;;;;;;6.53;3.75;;;15.20;99.90;;;16.14;100.00;99981.50;6160024;23;20396;-88
2021/07/29 01:55:06;;;;;;;8.70;3.65;;;15.20;99.90;;;16.00;100.00;99967.47;6181708;23;20009;-86
2021/07/29 01:57:38;;;;;;;4.40;3.30;;;15.10;99.90;;;16.00;100.00;99966.66;6132911;23;20097;-87
2021/07/29 02:00:08;;;;;;;9.75;3.47;;;15.10;99.90;;;15.98;100.00;99974.75;6134315;23;20061;-86
2021/07/29 02:02:37;;;;;;;3.22;2.92;;;15.00;99.90;;;15.88;100.00;99965.13;6133760;23;20028;-88
2021/07/29 02:05:13;;;;;;;6.30;3.42;;;15.00;99.90;;;15.90;100.00;99964.72;6133746;23;20013;-90
2021/07/29 02:07:47;;;;;;;4.82;3.20;;;15.00;99.90;;;15.87;100.00;99959.91;6160262;23;20006;-89
2021/07/29 02:10:16;;;;;;;6.50;3.20;;;15.00;99.90;;;15.79;100.00;99954.34;6158950;23;20017;-89
2021/07/29 02:12:55;;;;;;;5.90;3.17;;;14.90;99.90;;;15.94;99.84;99949.41;6134337;23;20002;-91
2021/07/29 02:15:22;;;;;;;8.02;3.60;;;14.90;99.90;;;15.83;99.69;99954.28;6134663;23;20009;-90
2021/07/29 02:17:51;;;;;;;4.65;3.00;;;14.90;99.90;;;15.86;99.76;99961.91;6135589;23;20009;-90
2021/07/29 02:20:17;;;;;;;5.80;2.78;;;14.80;99.90;;;15.69;100.00;99955.19;6136113;23;20009;-90
2021/07/29 02:22:43;;;;;;;5.60;3.25;;;14.90;99.90;;;15.74;100.00;99954.75;6136757;23;20020;-90
2021/07/29 02:25:12;;;;;;;5.10;3.20;;;14.80;99.90;;;15.77;99.38;99959.56;6137320;23;20009;-88
2021/07/29 02:27:38;;;;;;;6.75;3.15;;;14.70;99.90;;;15.73;98.48;99955.94;6133399;23;20096;-88
2021/07/29 02:30:05;;;;;;;5.20;2.72;;;14.80;99.90;;;15.78;98.56;99960.38;6133510;23;20040;-87
2021/07/29 02:32:33;;;;;;;6.25;2.60;;;14.70;99.90;;;15.70;98.71;99959.59;6134499;23;20381;-87
2021/07/29 02:34:59;;;;;;;5.40;2.58;;;14.70;99.90;;;15.65;98.13;99962.03;6134388;23;20005;-86
2021/07/29 02:37:26;;;;;;;4.88;2.47;;;14.70;99.90;;;15.72;98.38;99964.81;6171419;23;20017;-86
2021/07/29 02:39:52;;;;;;;6.05;2.78;;;14.70;99.90;;;15.64;98.43;99960.41;6146153;23;20021;-87
2021/07/29 02:42:19;;;;;;;4.20;2.80;;;14.70;99.90;;;15.55;99.43;99971.31;6131276;23;20064;-87
2021/07/29 02:44:45;;;;;;;4.15;2.80;;;14.60;99.90;;;15.55;99.24;99974.94;6131320;23;20014;-86
2021/07/29 02:47:11;;;;;;;5.00;2.72;;;14.60;99.90;;;15.61;99.40;99962.03;6131473;23;20100;-87
2021/07/29 02:49:37;;;;;;;3.33;2.80;;;14.60;99.90;;;15.59;99.45;99970.09;6131200;23;20056;-89
2021/07/29 02:52:04;;;;;;;4.88;2.63;;;14.60;99.90;;;15.54;99.49;99961.28;6131616;23;20010;-87
2021/07/29 02:54:35;;;;;;;4.10;2.88;;;14.60;99.90;;;15.52;98.40;99966.50;6131337;23;20009;-88
2021/07/29 02:57:01;;;;;;;4.82;2.63;;;14.60;99.90;;;15.63;97.65;99964.47;6130465;23;20021;-86
2021/07/29 02:59:27;;;;;;;5.72;2.78;;;14.60;99.90;;;15.54;98.40;99969.72;6131457;23;20455;-88
2021/07/29 03:01:54;;;;;;;5.90;2.67;;;14.60;99.90;;;15.57;98.50;99957.66;6129901;23;20006;-90
2021/07/29 03:04:20;;;;;;;7.88;2.92;;;14.60;99.90;;;15.51;99.25;99968.50;6131817;23;20431;-90
2021/07/29 03:06:47;;;;;;;6.20;2.80;;;14.50;99.90;;;15.53;99.10;99966.13;6156457;23;20017;-89
2021/07/29 03:09:23;;;;;;;5.55;3.00;;;14.50;99.90;;;15.57;98.43;99963.28;6131069;23;20017;-90
2021/07/29 03:11:58;;;;;;;;;;;14.50;99.90;;;15.53;99.16;99963.31;6155205;23;20065;-90
2021/07/29 03:14:26;;;;;;;8.18;3.33;;;14.50;99.90;;;15.49;99.14;99964.50;6131696;23;19904;-87
2021/07/29 03:17:19;;;;;;;6.10;2.80;;;14.50;99.90;;;15.41;100.00;99957.28;6131128;23;20009;-91
2021/07/29 03:19:45;;;;;;;9.85;2.63;;;14.50;99.90;;;15.50;99.14;99966.94;6156955;23;20005;-88
2021/07/29 03:22:15;;;;;;;5.63;3.03;;;14.50;99.90;;;15.49;99.00;99964.50;6131864;23;20009;-88
2021/07/29 03:24:41;;;;;;;4.63;2.83;;;14.50;99.90;;;15.50;98.64;99957.69;6156310;23;20059;-90
2021/07/29 03:27:06;;;;;;;7.72;2.83;;;14.50;99.90;;;15.44;98.98;99964.91;6131844;23;20001;-87
2021/07/29 03:29:33;;;;;;;5.57;3.05;;;14.50;99.90;;;15.45;98.80;99970.13;6156447;23;20014;-88
2021/07/29 03:31:59;;;;;;;9.38;3.28;;;14.50;99.90;;;15.42;99.21;99964.50;6133073;23;20005;-88
2021/07/29 03:34:31;;;;;;;5.70;2.90;;;14.50;99.90;;;15.38;99.09;99966.53;6157122;23;20002;-89
2021/07/29 03:36:57;;;;;;;5.15;3.35;;;14.40;99.90;;;15.38;98.54;99964.50;6134436;23;20391;-88
2021/07/29 03:39:22;;;;;;;5.35;3.05;;;14.40;99.90;;;15.38;98.62;99964.50;6133414;23;20017;-89
2021/07/29 03:41:48;;;;;;;5.90;2.63;;;14.50;99.90;;;15.44;98.27;99964.91;6133555;23;20006;-88
2021/07/29 03:44:14;;;;;;;7.15;2.83;;;14.50;99.90;;;15.51;98.28;99971.31;6133177;23;20032;-89
2021/07/29 03:46:40;;;;;;;4.72;2.60;;;14.50;99.90;;;15.59;97.35;99980.56;6157706;23;20010;-88
2021/07/29 03:49:19;;;;;;;9.18;3.15;;;14.60;99.90;;;15.68;97.04;99984.53;6132184;23;20013;-89
2021/07/29 03:51:45;;;;;;;6.13;3.20;;;14.60;99.90;;;15.62;97.06;99985.38;6132495;23;20009;-87
2021/07/29 03:54:13;;;;;;;6.00;3.38;;;14.60;99.90;;;15.56;97.53;99984.19;6133351;23;20005;-87
2021/07/29 03:56:39;;;;;;;4.43;3.00;;;14.60;99.90;;;15.60;97.13;99988.59;6132440;23;20009;-87
2021/07/29 03:59:05;;;;;;;5.93;3.67;;;14.70;99.90;;;15.65;96.47;99987.38;6132566;23;20005;-87
2021/07/29 04:01:31;;;;;;;11.50;3.55;;;14.60;99.90;;;15.62;96.49;99985.38;6132238;23;20011;-88
2021/07/29 04:04:01;;;;;;;5.15;2.55;;;14.60;99.90;;;15.54;96.91;99986.63;6132045;23;20060;-90
2021/07/29 04:06:27;;;;;;;8.80;3.65;;;14.60;99.90;;;15.61;96.70;99995.00;6131652;23;20018;-88
2021/07/29 04:08:53;;;;;;;9.98;3.28;;;14.60;99.90;;;15.58;96.78;99991.00;6132198;23;20045;-88
2021/07/29 04:11:18;;;;;;;6.15;3.03;;;14.60;99.90;;;15.56;96.71;99982.19;6158882;23;20474;-87
2021/07/29 04:13:48;;;;;;;5.97;2.90;;;14.60;99.90;;;15.68;96.30;99978.91;6132801;23;20009;-90
2021/07/29 04:16:14;;;;;;;5.00;3.00;;;14.60;99.90;;;15.69;96.06;99974.09;6132793;23;20005;-89
2021/07/29 04:18:40;;;;;;;6.20;3.67;;;14.60;99.90;;;15.65;96.41;99970.47;6132331;23;20009;-89
2021/07/29 04:21:06;;;;;;;10.80;3.75;;;14.60;99.90;;;15.62;96.69;99977.72;6132751;23;20083;-89
2021/07/29 04:23:33;;;;;;;9.23;3.47;;;14.60;99.90;;;15.68;95.98;99980.91;6157511;23;20431;-89
2021/07/29 04:25:59;;;;;;;7.82;3.17;;;14.60;99.90;;;15.71;96.10;99974.47;6134245;23;20001;-88
2021/07/29 04:28:24;;;;;;;10.80;3.50;;;14.70;99.90;;;15.69;96.21;99982.53;6133498;23;20006;-89
2021/07/29 04:30:50;;;;;;;11.70;3.75;;;14.70;99.90;;;15.71;96.06;99980.91;6134009;23;20009;-88
2021/07/29 04:33:16;;;;;;;9.13;3.38;;;14.70;99.90;;;15.65;96.69;99979.72;6134024;23;20494;-89
2021/07/29 04:35:42;;;;;;;9.35;4.00;;;14.60;99.90;;;15.60;97.17;99982.16;6133721;23;20009;-89
2021/07/29 04:38:08;;;;;;;5.93;3.28;;;14.60;99.90;;;15.64;96.87;99978.13;6135346;23;20493;-89
2021/07/29 04:40:34;;;;;;;7.88;3.40;;;14.60;99.90;;;15.69;96.64;99974.09;6136829;23;20009;-91
2021/07/29 04:43:06;;;;;;;10.55;3.67;;;14.60;99.90;;;15.67;96.89;99976.47;6138833;23;20009;-90
2021/07/29 04:45:33;;;;;;;6.90;3.40;;;14.70;99.90;;;15.72;96.84;99985.34;6159654;23;20001;-86
2021/07/29 04:48:00;;;;;;;7.35;3.53;;;14.70;99.90;;;15.86;96.54;99981.63;6134123;23;20027;-87
2021/07/29 04:50:26;;;;;;;7.65;3.28;;;14.80;99.90;;;15.88;96.29;99984.06;6135302;23;19998;-86
2021/07/29 04:52:53;;;;;;;5.88;3.70;;;14.80;99.90;;;15.92;96.58;99982.03;6181354;23;20012;-87
2021/07/29 04:55:20;;;;;;;10.88;3.72;;;14.90;99.90;;;16.16;95.43;99986.69;6145252;23;20085;-88
2021/07/29 04:57:47;;;;;;;9.32;4.43;;;15.00;99.90;;;16.18;95.05;99996.34;6134028;23;20016;-89
2021/07/29 05:00:14;;;;;;;12.43;4.05;;;15.20;99.90;;;16.37;94.34;99994.22;6133126;23;20009;-90
2021/07/29 05:02:39;;;;;;;9.25;3.35;;;15.20;99.90;;;16.30;94.24;99986.63;6183197;23;20080;-88
2021/07/29 05:05:10;;;;;;;8.68;3.55;;;15.20;99.90;;;16.23;94.93;99995.13;6133232;23;20018;-90
2021/07/29 05:07:36;;;;;;;6.93;3.42;;;15.20;99.90;;;16.25;94.53;100007.56;6137908;23;20006;-88
2021/07/29 05:10:03;;;;;;;8.70;3.13;;;15.20;99.90;;;16.20;95.10;100010.84;6140548;23;20009;-87
2021/07/29 05:12:29;;;;;;;9.13;3.33;;;15.10;99.90;;;16.30;94.52;100007.16;6162664;23;20016;-90
2021/07/29 05:14:56;;;;;;;8.50;3.42;;;15.10;99.90;;;16.39;93.97;100011.50;6138734;23;20001;-86
2021/07/29 05:17:25;;;;;;;10.15;4.40;;;15.30;99.90;;;16.30;93.97;100004.34;6138588;23;20016;-91
2021/07/29 05:19:51;;;;;;;9.38;3.47;;;15.20;99.90;;;16.49;93.08;100016.28;6137963;23;20021;-89
2021/07/29 05:22:17;;;;;;;8.43;3.35;;;15.30;99.90;;;16.68;92.35;100010.13;6137655;23;20021;-88
2021/07/29 05:24:44;;;;;;;9.98;3.63;;;15.50;99.90;;;16.84;91.04;100008.38;6137597;23;20010;-89
2021/07/29 05:27:10;;;;;;;7.47;3.25;;;15.60;99.90;;;16.86;90.51;100011.56;6161291;23;20064;-90
2021/07/29 05:29:36;;;;;;;5.15;2.80;;;15.80;99.90;;;16.95;90.09;100013.94;6137336;23;20006;-92
2021/07/29 05:32:02;;;;;;;6.75;3.10;;;15.90;99.90;;;17.00;88.95;100023.97;6138928;23;20010;-90
2021/07/29 05:34:28;;;;;;;9.70;2.90;;;15.90;99.90;;;17.24;88.56;100014.47;6136666;23;20040;-90
2021/07/29 05:36:55;;;;;;;10.45;3.22;;;16.00;99.90;;;17.20;87.45;100016.53;6138203;23;20012;-90
2021/07/29 05:39:21;;;;;;;7.00;2.60;;;16.00;99.90;;;17.26;87.08;100010.00;6138169;23;20052;-91
2021/07/29 05:41:46;;;;;;;7.00;2.70;;;16.10;99.90;;;17.24;86.73;100009.59;6138405;23;20010;-90
2021/07/29 05:44:13;;;;;;;7.55;2.70;;;16.20;99.90;;;17.32;86.44;100018.81;6139632;23;20017;-92
2021/07/29 05:46:38;;;;;;;5.47;2.38;;;16.20;99.90;;;17.32;86.43;100018.81;6140092;23;20096;-88
2021/07/29 05:49:04;;;;;;;8.43;2.55;;;16.30;99.90;;;17.51;85.39;100023.03;6164461;23;20037;-92
2021/07/29 05:51:30;;;;;;;8.52;2.42;;;16.30;99.90;;;17.79;83.99;100037.66;6138511;23;20033;-90
2021/07/29 05:53:57;;;;;;;7.10;2.67;;;16.50;99.90;;;17.76;83.75;100023.59;6135500;23;20006;-90
2021/07/29 05:56:23;;;;;;;6.95;2.03;;;16.60;99.90;;;17.95;83.17;100025.75;6136618;23;20013;-92
2021/07/29 05:58:48;;;;;;;6.75;2.67;;;16.80;99.90;;;18.05;81.89;100027.66;6164053;23;20012;-88
2021/07/29 06:01:14;;;;;;;4.40;2.08;;;16.90;99.90;;;18.31;80.64;100026.91;6141308;23;20010;-90
2021/07/29 06:03:40;;;;;;;7.25;2.35;;;17.00;99.90;;;18.21;79.84;100025.00;6142722;23;20020;-90
2021/07/29 06:06:06;;;;;;;6.80;2.45;;;17.10;99.90;;;18.35;79.83;100024.81;6167087;23;20005;-90
2021/07/29 06:08:32;;;;;;;7.72;2.45;;;17.20;99.90;;;18.54;79.88;100029.00;6142133;23;20335;-89
2021/07/29 06:11:02;;;;;;;12.98;2.85;;;17.30;99.90;;;18.72;78.81;100031.59;6165022;23;20085;-90
2021/07/29 06:13:28;;;;;;;5.40;2.00;;;17.50;99.90;;;18.76;77.27;100030.28;6167008;23;20010;-90
2021/07/29 06:15:54;;;;;;;8.25;2.05;;;17.60;99.90;;;19.29;76.24;100034.25;6140286;23;20009;-88
2021/07/29 06:18:24;;;;;;;9.55;2.50;;;17.80;99.90;;;19.46;74.65;100033.94;6140773;23;20020;-88
2021/07/29 06:20:50;;;;;;;9.80;2.25;;;18.00;99.90;;;19.46;73.47;100042.44;6138590;23;20017;-89
2021/07/29 06:23:18;;;;;;;6.25;1.70;;;18.20;99.90;;;19.73;73.65;100047.19;6139661;23;20009;-89
2021/07/29 06:25:44;;;;;;;7.05;2.30;;;18.30;99.90;;;19.61;73.52;100033.66;6138928;23;20009;-91
2021/07/29 06:28:15;;;;;;;5.50;1.80;;;18.40;99.90;;;19.88;73.39;100040.78;6138614;23;20036;-92
2021/07/29 06:30:45;;;;;;;5.97;2.28;;;18.60;99.90;;;19.65;70.95;100035.19;6139009;23;20005;-89
2021/07/29 06:33:13;;;;;;;5.32;2.30;;;18.60;99.90;;;19.64;70.87;100032.81;6141334;23;20037;-89
2021/07/29 06:35:48;;;;;;;7.40;1.95;;;18.60;99.90;;;19.78;69.46;100032.50;6141456;23;20005;-89
2021/07/29 06:38:17;;;;;;;7.03;2.20;;;18.60;99.90;;;19.67;70.13;100035.56;6143056;23;20327;-91
2021/07/29 06:40:48;;;;;;;7.10;2.28;;;18.60;99.90;;;19.99;69.16;100043.41;6168402;23;20013;-91
2021/07/29 06:43:14;;;;;;;8.98;2.05;;;18.70;99.90;;;20.09;68.60;100033.91;6146158;23;20005;-89
2021/07/29 06:45:40;;;;;;;5.70;1.88;;;18.90;99.90;;;20.40;66.76;100043.75;6168784;23;20005;-89
2021/07/29 06:48:06;;;;;;;11.00;2.78;;;19.10;99.90;;;20.96;65.39;100046.50;6149105;23;20031;-90
2021/07/29 06:50:34;;;;;;;7.22;2.00;;;19.40;99.90;;;20.86;65.31;100047.56;6147210;23;20005;-89
2021/07/29 06:52:59;;;;;;;7.18;1.83;;;19.50;99.90;;;20.31;66.29;100054.91;6143710;23;20005;-92
2021/07/29 06:55:25;;;;;;;7.53;1.98;;;19.40;99.90;;;20.38;65.99;100056.78;6144050;23;20097;-91
2021/07/29 06:57:51;;;;;;;4.43;1.27;;;19.30;99.90;;;20.54;65.62;100058.84;6170197;23;20033;-91
2021/07/29 07:00:20;;;;;;;6.20;2.00;;;19.30;99.90;;;20.71;64.13;100055.59;6145026;23;20060;-91
2021/07/29 07:02:46;;;;;;;8.38;2.00;;;19.40;99.90;;;20.89;61.62;100058.81;6144849;23;20009;-86
2021/07/29 07:05:12;;;;;;;8.50;1.90;;;19.60;99.90;;;20.96;61.79;100064.34;6169243;23;20020;-87
2021/07/29 07:07:38;;;;;;;6.57;1.80;;;19.70;99.90;;;20.82;62.52;100061.03;6154014;23;20002;-89
2021/07/29 07:10:05;;;;;;;4.72;1.30;;;19.70;99.90;;;20.44;63.42;100064.34;6150852;23;20037;-90
2021/07/29 07:12:36;;;;;;;7.20;2.05;;;19.60;99.90;;;20.80;61.82;100066.34;6137616;23;20084;-91
2021/07/29 07:15:04;;;;;;;6.50;1.63;;;19.70;99.90;;;20.96;60.68;100063.53;6161030;23;20005;-91
2021/07/29 07:17:30;;;;;;;4.82;1.60;;;19.80;99.90;;;21.33;61.82;100062.22;6136975;23;20069;-90
2021/07/29 07:20:00;;;;;;;6.57;1.52;;;19.90;99.90;;;21.67;58.59;100062.53;6136961;23;20009;-90
2021/07/29 07:22:26;;;;;;;10.18;1.65;;;20.30;99.90;;;21.80;58.42;100073.94;6136056;23;20092;-91
2021/07/29 07:24:53;;;;;;;8.90;1.92;;;20.50;99.90;;;22.17;58.82;100061.91;6138102;23;20002;-90
2021/07/29 07:27:19;;;;;;;10.20;2.80;;;20.70;99.90;;;21.44;58.30;100069.22;6167829;23;20443;-91
2021/07/29 07:29:45;;;;;;;20.63;4.38;;;20.60;99.90;;;21.40;59.58;100074.19;6142953;23;20013;-90
2021/07/29 07:32:11;;;;;;;8.25;2.40;;;20.50;99.90;;;21.79;58.08;100072.34;6135750;23;20009;-91
2021/07/29 07:34:39;;;;;;;10.73;2.72;;;20.60;99.90;;;21.68;58.60;100066.94;6134744;23;20135;-89
2021/07/29 07:37:05;;;;;;;6.13;1.63;;;20.60;99.90;;;21.96;57.95;100074.69;6138953;23;20005;-88
2021/07/29 07:39:34;;;;;;;6.57;2.03;;;20.70;99.90;;;22.43;57.43;100074.94;6147016;23;20036;-89
2021/07/29 07:42:00;;;;;;;1.90;1.23;;;21.00;99.90;;;22.96;55.94;100070.44;6172043;23;20060;-91
2021/07/29 07:44:27;;;;;;;3.20;1.20;;;21.30;99.90;;;22.50;55.22;100076.78;6145124;23;20035;-90
2021/07/29 07:46:54;;;;;;;5.65;1.60;;;21.40;99.90;;;22.42;53.07;100078.22;6171832;23;20092;-91
2021/07/29 07:49:20;;;;;;;4.63;1.55;;;21.40;99.90;;;22.01;52.25;100085.53;6147222;23;20010;-91
2021/07/29 07:51:50;;;;;;;5.63;1.48;;;21.10;99.90;;;21.26;53.90;100087.94;6140893;23;20036;-91
2021/07/29 07:54:16;;;;;;;5.63;1.20;;;20.50;99.90;;;21.40;56.01;100088.41;6137799;23;20009;-90
2021/07/29 07:56:43;;;;;;;9.60;1.42;;;20.40;99.90;;;21.27;55.69;100095.22;6141981;23;20016;-91
2021/07/29 07:59:12;;;;;;;6.13;1.65;;;20.20;99.90;;;21.83;54.98;100088.03;6144395;23;20143;-89
2021/07/29 08:01:40;;;;;;;4.60;1.38;;;20.50;99.90;;;21.86;55.41;100087.16;6141138;23;20010;-91
2021/07/29 08:04:06;;;;;;;8.43;1.55;;;20.60;99.90;;;21.01;56.66;100099.91;6168079;23;20033;-92
2021/07/29 08:06:36;;;;;;;4.45;1.70;;;20.20;99.90;;;20.54;56.67;100087.22;6166481;23;20096;-90
2021/07/29 08:09:04;;;;;;;6.88;1.48;;;19.60;99.90;;;20.13;58.45;100087.69;6142379;23;20009;-89
2021/07/29 08:11:30;;;;;;;3.40;1.52;;;19.20;99.90;;;20.75;58.01;100083.88;6144338;23;20100;-87
2021/07/29 08:13:57;;;;;;;6.07;1.40;;;19.50;99.90;;;21.33;56.52;100080.06;6143690;23;20085;-89
2021/07/29 08:16:23;;;;;;;6.25;1.70;;;20.00;99.90;;;21.76;54.22;100082.56;6144624;23;20022;-89
2021/07/29 08:18:50;;;;;;;5.07;1.38;;;20.40;99.90;;;22.25;54.15;100076.75;6142912;23;20041;-90
2021/07/29 08:21:27;;;;;;;6.80;1.73;;;20.90;99.90;;;23.23;50.75;100083.41;6143897;23;20017;-89
2021/07/29 08:23:53;;;;;;;5.38;1.65;;;21.60;99.90;;;23.31;52.93;100074.16;6142724;23;20435;-91
2021/07/29 08:26:19;;;;;;;7.20;1.98;;;21.80;99.90;;;23.09;51.91;100085.47;6138052;23;20017;-89
2021/07/29 08:28:45;;;;;;;4.32;1.30;;;21.80;99.90;;;22.36;53.08;100085.75;6134529;23;20498;-90
2021/07/29 08:31:14;;;;;;;6.00;1.33;;;21.50;99.90;;;22.34;53.31;100083.34;6134672;23;20029;-90
2021/07/29 08:33:42;;;;;;;7.45;1.95;;;21.40;99.90;;;21.85;55.16;100085.56;6159510;23;20012;-89
2021/07/29 08:36:19;;;;;;;5.10;1.38;;;21.10;99.90;;;22.40;54.24;100081.53;6134809;23;20001;-90
2021/07/29 08:38:48;;;;;;;4.32;1.35;;;21.30;99.90;;;22.35;53.06;100079.25;6158756;23;20013;-90
2021/07/29 08:41:19;;;;;;;3.58;1.45;;;21.30;99.90;;;22.02;53.63;100092.03;6135077;23;20372;-88
2021/07/29 08:43:47;;;;;;;4.53;1.58;;;21.30;99.90;;;22.56;52.53;100089.19;6135042;23;20010;-90
2021/07/29 08:46:25;;;;;;;7.45;1.75;;;21.40;99.90;;;23.07;50.70;100095.72;6135773;23;20020;-90
2021/07/29 08:48:51;;;;;;;6.38;1.67;;;21.70;99.90;;;22.67;52.77;100088.91;6135054;23;20013;-88
2021/07/29 08:51:26;;;;;;;5.38;1.50;;;21.60;99.90;;;23.27;52.92;100099.13;6157446;23;20005;-88
2021/07/29 08:53:53;;;;;;;6.43;1.80;;;21.70;99.90;;;23.23;49.98;100083.41;6158842;23;20037;-87
2021/07/29 08:56:25;;;;;;;6.30;1.77;;;21.90;98.60;;;22.91;50.07;100088.09;6158628;23;20262;-87
2021/07/29 08:58:53;;;;;;;6.65;1.70;;;21.90;97.00;;;22.60;52.14;100090.66;6157594;23;20005;-88
2021/07/29 09:01:19;;;;;;;6.85;1.98;;;21.70;98.70;;;22.86;51.96;100096.44;6157562;23;20019;-87
2021/07/29 09:03:47;;;;;;;11.15;1.80;;;21.80;99.10;;;23.38;50.24;100093.06;6132167;23;20006;-87
2021/07/29 09:06:15;;;;;;;5.18;1.70;;;22.00;98.10;;;23.50;50.68;100098.75;6141052;23;20013;-88
2021/07/29 09:08:52;;;;;;;4.82;1.13;;;22.10;98.80;;;23.41;50.05;100101.53;6146470;23;20040;-87
2021/07/29 09:11:37;;;;;;;6.20;1.63;;;22.10;97.70;;;22.81;51.21;100103.47;6172088;23;20004;-88
2021/07/29 09:14:12;;;;;;;5.63;1.83;;;21.90;96.90;;;22.73;51.92;100104.97;6146696;23;20425;-85
2021/07/29 09:17:04;;;;;;;7.68;1.65;;;21.60;98.60;;;22.15;51.50;100101.41;6170782;23;20001;-87
2021/07/29 09:19:42;;;;;;;5.68;1.73;;;21.40;96.60;;;22.33;50.81;100093.13;6142960;23;20069;-88
2021/07/29 09:22:24;;;;;;;5.93;1.92;;;21.20;96.60;;;22.10;50.55;100101.94;6146440;23;20006;-87
2021/07/29 09:25:12;;;;;;;3.38;1.50;;;21.20;95.90;;;22.26;50.09;100110.41;6174263;23;20005;-87
2021/07/29 09:27:38;;;;;;;5.53;1.38;;;21.20;95.30;;;22.55;49.10;100116.84;6169042;23;20009;-86
2021/07/29 09:30:32;;;;;;;4.97;1.77;;;21.20;95.00;;;21.76;50.51;100104.50;6165540;23;20009;-86
2021/07/29 09:33:13;;;;;;;5.32;1.45;;;20.80;96.00;;;21.25;51.39;100109.88;6167006;23;20030;-86
2021/07/29 09:35:52;;;;;;;6.30;1.67;;;20.40;95.90;;;21.51;52.02;100111.63;6142418;23;20041;-87
2021/07/29 09:38:32;;;;;;;7.82;1.70;;;20.40;97.80;;;22.42;50.08;100112.38;6161489;23;20005;-86
2021/07/29 09:41:06;;;;;;;3.50;1.10;;;21.00;96.60;;;23.44;47.21;100111.19;6160466;23;20006;-87
2021/07/29 09:43:37;;;;;;;4.40;1.52;;;21.70;93.70;;;24.17;46.29;100115.56;6134453;23;20041;-90
2021/07/29 09:46:16;;;;;;;4.68;1.40;;;22.60;92.00;;;24.57;43.81;100113.59;6133934;23;20009;-86
2021/07/29 09:48:58;;;;;;;6.43;1.70;;;23.10;86.90;;;24.10;44.06;100104.38;6161946;23;20093;-86
2021/07/29 09:51:33;;;;;;;6.03;1.33;;;23.00;82.30;;;23.94;45.91;100110.25;6132785;23;20005;-88
2021/07/29 09:54:05;;;;;;;4.88;1.40;;;22.80;86.30;;;23.72;46.04;100100.88;6130871;23;20379;-87
2021/07/29 09:56:34;;;;;;;7.03;1.75;;;22.60;87.60;;;23.52;46.80;100101.16;6157301;23;20005;-90
2021/07/29 09:59:21;;;;;;;7.80;1.50;;;22.50;87.90;;;24.42;44.80;100103.22;6157295;23;20129;-87
2021/07/29 10:04:57;;;;;;;6.47;1.92;;;23.30;84.30;;;24.47;43.44;100094.81;6160785;23;20013;-88
2021/07/29 10:07:37;;;;;;;6.05;1.33;;;23.30;79.40;;;24.34;45.35;100105.53;6135842;23;20013;-89
2021/07/29 10:10:07;;;;;;;6.90;1.95;;;23.10;83.60;;;23.83;45.88;100110.63;6159232;23;20051;-91
2021/07/29 10:12:39;;;;;;;8.63;1.40;;;22.70;84.50;;;23.14;46.83;100106.09;6159216;23;20033;-89
2021/07/29 10:15:10;;;;;;;5.95;1.80;;;22.00;86.00;;;23.33;46.26;100096.50;6134974;23;20012;-88
2021/07/29 10:18:02;;;;;;;3.53;1.10;;;22.00;86.90;;;24.18;44.46;100111.44;6134464;23;20376;-89
2021/07/29 10:20:39;;;;;;;4.22;1.23;;;22.60;83.60;;;24.52;41.17;100117.06;6160389;23;20002;-91
2021/07/29 10:23:17;;;;;;;3.88;1.27;;;23.20;75.60;;;24.49;42.51;100117.22;6159686;23;20029;-93
2021/07/29 10:26:04;;;;;;;7.07;1.85;;;23.20;76.30;;;24.34;41.82;100119.03;6158391;23;20095;-89
2021/07/29 10:28:41;;;;;;;6.35;1.60;;;23.20;74.80;;;23.69;43.55;100111.16;6135014;23;20116;-91
2021/07/29 10:31:44;;;;;;;5.80;1.33;;;22.90;75.10;;;24.38;44.27;100117.59;6158292;23;20005;-87
2021/07/29 10:34:36;;;;;;;5.25;1.40;;;23.20;77.40;;;24.51;42.44;100118.34;6134733;23;20025;-90
2021/07/29 10:37:43;;;;;;;4.28;1.30;;;23.40;75.20;;;23.82;42.68;100111.13;6135990;23;20088;-90
2021/07/29 10:41:08;;;;;;;4.18;1.67;;;23.20;72.50;;;22.95;44.98;100110.78;6134937;23;20014;-90
2021/07/29 10:43:44;;;;;;;5.45;1.60;;;22.40;75.70;;;22.52;45.84;100116.97;6144534;23;20096;-89
2021/07/29 10:46:10;;;;;;;3.92;1.35;;;21.60;79.20;;;22.36;47.57;100115.00;6135482;23;20010;-88
2021/07/29 10:51:25;;;;;;;6.68;1.90;;;21.00;84.70;;;22.25;47.28;100114.50;6162762;23;20063;-88
2021/07/29 10:53:57;;;;;;;5.22;1.52;;;20.90;85.60;;;23.48;46.83;100120.44;6136248;23;20071;-89
2021/07/29 10:56:26;;;;;;;5.25;1.50;;;21.70;88.40;;;24.68;45.14;100118.91;6135262;23;20433;-90
2021/07/29 10:58:56;;;;;;;5.50;1.90;;;22.60;87.00;;;24.87;43.33;100114.13;6134916;23;20092;-88
2021/07/29 11:01:51;;;;;;;3.83;1.40;;;23.10;80.10;;;25.47;42.82;100117.34;6159011;23;20437;-90
2021/07/29 11:04:28;;;;;;;4.93;1.50;;;23.60;81.10;;;25.89;43.15;100111.88;6160856;23;20279;-90
2021/07/29 11:07:06;;;;;;;4.72;1.48;;;24.10;79.90;;;26.28;39.83;100113.81;6136173;23;20009;-87
2021/07/29 11:09:39;;;;;;;5.00;1.58;;;24.60;72.80;;;26.53;38.83;100099.13;6165026;23;20009;-88
2021/07/29 11:12:20;;;;;;;5.03;1.77;;;24.90;71.10;;;26.12;40.63;100114.09;6138197;23;20005;-91
2021/07/29 11:14:50;;;;;;;4.53;1.45;;;24.90;70.50;;;26.57;39.02;100099.75;6135315;23;20006;-89
2021/07/29 11:17:26;;;;;;;13.57;1.63;;;25.10;68.70;;;25.47;39.50;100100.19;6137787;23;20080;-90
2021/07/29 11:19:54;;;;;;;4.05;1.30;;;24.70;67.30;;;24.99;43.10;100108.28;6161342;23;20005;-92
2021/07/29 11:22:27;;;;;;;5.70;1.58;;;24.10;73.70;;;25.35;41.89;100106.84;6162949;23;20108;-91
2021/07/29 11:25:13;;;;;;;5.22;1.05;;;24.20;72.20;;;26.22;39.70;100100.59;6140916;23;20017;-88
2021/07/29 11:27:39;;;;;;;7.20;1.55;;;24.50;71.30;;;26.34;39.04;100088.97;6141260;23;20009;-87
2021/07/29 11:30:12;;;;;;;8.05;1.40;;;24.80;68.40;;;26.16;38.33;100106.19;6140476;23;20331;-89
2021/07/29 11:32:59;;;;;;;3.67;1.35;;;24.90;65.70;;;26.24;39.17;100098.06;6138793;23;20025;-90
2021/07/29 11:35:31;;;;;;;4.10;1.35;;;24.90;67.00;;;26.44;37.05;100121.25;6139127;23;20029;-91
2021/07/29 11:37:59;;;;;;;2.65;1.30;;;25.20;62.90;;;26.04;37.65;100110.75;6139310;23;20001;-86
2021/07/29 11:40:57;;;;;;;3.38;1.05;;;24.90;62.90;;;25.87;39.16;100112.38;6154828;23;20001;-84
2021/07/29 11:43:37;;;;;;;5.03;1.73;;;24.60;68.50;;;25.29;39.36;100108.72;6143499;23;20077;-90
2021/07/29 11:46:22;;;;;;;4.85;1.55;;;24.20;65.70;;;25.54;39.99;100111.34;6163995;23;20013;-91
2021/07/29 11:49:05;;;;;;;3.70;1.40;;;24.10;68.20;;;24.96;40.15;100114.16;6137522;23;20010;-90
2021/07/29 11:51:41;;;;;;;6.45;1.60;;;23.60;66.90;;;24.45;41.40;100110.84;6138456;23;20068;-90
2021/07/29 11:54:23;;;;;;;6.15;1.42;;;23.30;69.20;;;23.70;42.51;100109.09;6137914;23;20519;-88
2021/07/29 11:56:49;;;;;;;6.68;1.77;;;22.70;70.10;;;24.24;41.78;100114.50;6134090;23;20006;-88
2021/07/29 11:59:16;;;;;;;2.42;1.10;;;22.90;70.30;;;24.36;40.24;100116.50;6162434;23;20400;-89
2021/07/29 12:01:49;;;;;;;3.97;1.40;;;23.20;67.30;;;25.08;40.75;100116.91;6162723;23;20089;-91
2021/07/29 12:04:27;;;;;;;8.75;1.88;;;23.60;69.60;;;25.66;39.84;100119.00;6135014;23;20010;-88
2021/07/29 12:07:05;;;;;;;3.97;1.25;;;23.90;68.90;;;25.53;40.05;100116.28;6135440;23;20020;-90
2021/07/29 12:09:49;;;;;;;5.18;1.50;;;24.20;67.80;;;24.88;39.73;100113.66;6159985;23;20040;-92
2021/07/29 12:12:17;;;;;;;6.00;1.20;;;23.80;66.30;;;23.77;41.44;100114.53;6161571;23;20002;-90